createdAt,value
2022-12-13T00:01:31.113Z,100166.28
2022-12-13T00:04:02.104Z,100161.91
2022-12-13T00:06:30.753Z,100166.63
2022-12-13T00:09:00.403Z,100167.13
2022-12-13T00:11:28.714Z,100161.59
2022-12-13T00:13:56.757Z,100157.97
2022-12-13T00:16:26.771Z,100157.06
2022-12-13T00:18:57.513Z,100150.72
2022-12-13T00:21:27.874Z,100155.38
2022-12-13T00:23:56.045Z,100150.91
2022-12-13T00:26:27.497Z,100142.72
2022-12-13T00:28:55.861Z,100140.19
2022-12-13T00:34:13.827Z,100139.16
2022-12-13T00:36:41.708Z,100132.66
2022-12-13T00:39:12.773Z,100123.50
2022-12-13T00:41:42.044Z,100126.22
2022-12-13T00:44:11.732Z,100127.91
2022-12-13T00:46:40.208Z,100135.34
2022-12-13T00:49:08.192Z,100128.25
2022-12-13T00:51:36.112Z,100134.69
2022-12-13T00:54:04.014Z,100134.03
2022-12-13T00:56:34.115Z,100131.88
2022-12-13T00:59:03.370Z,100129.81
2022-12-13T01:01:32.507Z,100122.84
2022-12-13T01:04:02.552Z,100125.09
2022-12-13T01:06:34.623Z,100130.56
2022-12-13T01:09:03.070Z,100119.19
2022-12-13T01:11:30.883Z,100120.88
2022-12-13T01:13:58.638Z,100120.72
2022-12-13T01:16:28.195Z,100127.03
2022-12-13T01:18:58.018Z,100128.31
2022-12-13T01:21:25.713Z,100139.13
2022-12-13T01:23:53.452Z,100135.22
2022-12-13T01:26:22.851Z,100128.69
2022-12-13T01:28:50.961Z,100133.53
2022-12-13T01:31:21.372Z,100137.50
2022-12-13T01:33:51.000Z,100132.72
2022-12-13T01:36:27.065Z,100134.50
2022-12-13T01:38:58.582Z,100135.06
2022-12-13T01:41:29.259Z,100130.75
2022-12-13T01:44:03.399Z,100124.91
2022-12-13T01:46:33.374Z,100131.63
2022-12-13T01:49:20.185Z,100128.53
2022-12-13T01:51:52.387Z,100135.59
2022-12-13T01:54:25.534Z,100128.41
2022-12-13T01:57:06.074Z,100120.97
2022-12-13T01:59:35.221Z,100118.66
2022-12-13T02:02:03.669Z,100128.69
2022-12-13T02:04:43.932Z,100116.13
2022-12-13T02:07:14.343Z,100113.06
2022-12-13T02:09:57.170Z,100117.81
2022-12-13T02:12:29.760Z,100121.44
2022-12-13T02:15:00.904Z,100110.63
2022-12-13T02:17:43.818Z,100112.09
2022-12-13T02:20:36.709Z,100111.47
2022-12-13T02:23:22.226Z,100101.69
2022-12-13T02:26:06.812Z,100110.06
2022-12-13T02:28:50.990Z,100105.00
2022-12-13T02:31:30.965Z,100111.69
2022-12-13T02:34:06.395Z,100108.31
2022-12-13T02:36:42.583Z,100110.38
2022-12-13T02:39:15.329Z,100114.22
2022-12-13T02:41:49.299Z,100105.81
2022-12-13T02:44:22.200Z,100107.97
2022-12-13T02:46:56.115Z,100098.91
2022-12-13T02:49:26.650Z,100094.91
2022-12-13T02:51:55.602Z,100096.09
2022-12-13T02:54:24.567Z,100095.25
2022-12-13T02:56:56.418Z,100101.88
2022-12-13T02:59:29.184Z,100099.66
2022-12-13T03:02:11.195Z,100087.47
2022-12-13T03:05:05.633Z,100099.75
2022-12-13T03:07:43.530Z,100102.81
2022-12-13T03:10:22.152Z,100095.22
2022-12-13T03:13:13.676Z,100089.84
2022-12-13T03:15:47.768Z,100089.63
2022-12-13T03:18:23.035Z,100093.84
2022-12-13T03:20:53.263Z,100090.50
2022-12-13T03:23:22.239Z,100085.03
2022-12-13T03:25:53.264Z,100086.78
2022-12-13T03:28:21.394Z,100085.72
2022-12-13T03:30:49.163Z,100090.84
2022-12-13T03:33:18.324Z,100086.91
2022-12-13T03:35:46.496Z,100090.97
2022-12-13T03:38:21.890Z,100087.69
2022-12-13T03:40:53.560Z,100091.22
2022-12-13T03:43:21.961Z,100084.53
2022-12-13T03:45:51.070Z,100086.06
2022-12-13T03:48:22.790Z,100081.44
2022-12-13T03:50:52.090Z,100085.69
2022-12-13T03:53:23.587Z,100081.63
2022-12-13T03:56:01.273Z,100079.34
2022-12-13T03:58:35.696Z,100084.34
2022-12-13T04:01:07.088Z,100079.69
2022-12-13T04:03:54.289Z,100083.13
2022-12-13T04:06:24.621Z,100081.72
2022-12-13T04:08:54.141Z,100077.88
2022-12-13T04:11:42.361Z,100078.03
2022-12-13T04:14:10.744Z,100076.31
2022-12-13T04:16:38.557Z,100065.56
2022-12-13T04:19:07.871Z,100069.84
2022-12-13T04:21:35.541Z,100073.19
2022-12-13T04:24:03.233Z,100076.72
2022-12-13T04:26:30.944Z,100070.28
2022-12-13T04:28:58.579Z,100071.59
2022-12-13T04:31:26.291Z,100074.88
2022-12-13T04:33:53.962Z,100081.63
2022-12-13T04:36:31.561Z,100079.44
2022-12-13T04:39:00.776Z,100078.31
2022-12-13T04:41:34.422Z,100077.81
2022-12-13T04:44:03.257Z,100076.16
2022-12-13T04:46:30.993Z,100088.44
2022-12-13T04:48:58.642Z,100080.09
2022-12-13T04:51:27.972Z,100079.88
2022-12-13T04:53:55.720Z,100076.78
2022-12-13T04:56:31.960Z,100079.69
2022-12-13T04:58:59.684Z,100075.28
2022-12-13T05:01:27.382Z,100072.88
2022-12-13T05:03:55.243Z,100067.91
2022-12-13T05:06:26.322Z,100062.69
2022-12-13T05:09:00.816Z,100062.13
2022-12-13T05:11:35.648Z,100064.72
2022-12-13T05:14:04.111Z,100067.16
2022-12-13T05:16:31.915Z,100071.63
2022-12-13T05:18:59.638Z,100081.16
2022-12-13T05:21:27.338Z,100075.88
2022-12-13T05:23:58.743Z,100075.13
2022-12-13T05:26:26.421Z,100079.94
2022-12-13T05:28:56.112Z,100076.44
2022-12-13T05:31:24.245Z,100073.69
2022-12-13T05:33:52.294Z,100069.22
2022-12-13T05:36:20.089Z,100065.13
2022-12-13T05:38:47.832Z,100072.06
2022-12-13T05:41:20.463Z,100067.06
2022-12-13T05:43:48.123Z,100077.50
2022-12-13T05:46:16.002Z,100081.66
2022-12-13T05:48:44.206Z,100061.22
2022-12-13T05:51:12.300Z,100058.84
2022-12-13T05:53:41.106Z,100058.69
2022-12-13T05:56:10.067Z,100044.28
2022-12-13T05:58:40.514Z,100050.13
2022-12-13T06:01:09.227Z,100046.44
2022-12-13T06:03:37.307Z,100054.19
2022-12-13T06:06:06.122Z,100061.16
2022-12-13T06:08:34.082Z,100054.75
2022-12-13T06:11:10.422Z,100060.19
2022-12-13T06:13:43.573Z,100074.25
2022-12-13T06:16:22.987Z,100069.47
2022-12-13T06:18:59.475Z,100075.81
2022-12-13T06:21:44.035Z,100061.53
2022-12-13T06:24:15.367Z,100074.50
2022-12-13T06:26:44.874Z,100068.75
2022-12-13T06:29:23.437Z,100065.75
2022-12-13T06:32:01.110Z,100063.09
2022-12-13T06:34:31.347Z,100062.31
2022-12-13T06:36:59.202Z,100059.47
2022-12-13T06:39:32.903Z,100062.53
2022-12-13T06:42:01.610Z,100049.06
2022-12-13T06:44:31.007Z,100060.19
2022-12-13T06:47:10.479Z,100057.63
2022-12-13T06:49:41.877Z,100059.13
2022-12-13T06:52:11.745Z,100064.94
2022-12-13T06:54:39.721Z,100061.72
2022-12-13T06:57:07.615Z,100060.16
2022-12-13T06:59:36.865Z,100055.41
2022-12-13T07:02:04.741Z,100064.06
2022-12-13T07:04:32.827Z,100067.13
2022-12-13T07:07:02.135Z,100076.38
2022-12-13T07:09:30.718Z,100071.34
2022-12-13T07:11:58.906Z,100082.81
2022-12-13T07:14:26.813Z,100072.31
2022-12-13T07:17:03.088Z,100072.59
2022-12-13T07:19:35.527Z,100068.44
2022-12-13T07:22:05.682Z,100073.06
2022-12-13T07:24:34.034Z,100076.53
2022-12-13T07:27:01.733Z,100080.44
2022-12-13T07:29:29.503Z,100084.56
2022-12-13T07:32:01.440Z,100083.06
2022-12-13T07:34:29.879Z,100093.31
2022-12-13T07:36:57.585Z,100096.66
2022-12-13T07:39:26.881Z,100098.25
2022-12-13T07:41:55.822Z,100098.34
2022-12-13T07:44:23.745Z,100097.28
2022-12-13T07:46:51.643Z,100099.16
2022-12-13T07:49:21.253Z,100102.72
2022-12-13T07:51:49.011Z,100103.72
2022-12-13T07:54:16.884Z,100095.84
2022-12-13T07:56:44.660Z,100091.03
2022-12-13T07:59:14.035Z,100095.97
2022-12-13T08:01:41.984Z,100085.09
2022-12-13T08:04:09.962Z,100089.47
2022-12-13T08:06:39.480Z,100089.47
2022-12-13T08:09:07.541Z,100092.06
2022-12-13T08:11:35.757Z,100090.13
2022-12-13T08:14:03.607Z,100097.41
2022-12-13T08:16:31.481Z,100098.88
2022-12-13T08:19:01.142Z,100107.94
2022-12-13T08:21:55.865Z,100094.97
2022-12-13T08:24:25.109Z,100092.91
2022-12-13T08:26:53.203Z,100094.69
2022-12-13T08:29:23.562Z,100100.56
2022-12-13T08:32:02.740Z,100094.69
2022-12-13T08:34:31.766Z,100094.59
2022-12-13T08:37:03.195Z,100099.34
2022-12-13T08:39:34.155Z,100098.50
2022-12-13T08:42:14.751Z,100101.63
2022-12-13T08:44:43.518Z,100108.38
2022-12-13T08:47:11.227Z,100117.44
2022-12-13T08:49:38.930Z,100100.22
2022-12-13T08:52:08.174Z,100103.09
2022-12-13T08:54:35.866Z,100107.19
2022-12-13T08:57:03.618Z,100107.28
2022-12-13T08:59:31.632Z,100104.31
2022-12-13T09:02:04.762Z,100106.53
2022-12-13T09:04:32.962Z,100112.25
2022-12-13T09:07:01.668Z,100109.53
2022-12-13T09:09:31.352Z,100102.63
2022-12-13T09:12:00.075Z,100096.47
2022-12-13T09:14:34.115Z,100107.75
2022-12-13T09:17:03.624Z,100109.72
2022-12-13T09:19:37.256Z,100113.91
2022-12-13T09:22:05.504Z,100114.34
2022-12-13T09:24:37.032Z,100112.13
2022-12-13T09:27:09.833Z,100111.19
2022-12-13T09:29:39.135Z,100114.06
2022-12-13T09:32:07.081Z,100111.63
2022-12-13T09:34:34.959Z,100116.84
2022-12-13T09:37:02.850Z,100121.72
2022-12-13T09:39:30.922Z,100116.78
2022-12-13T09:42:01.739Z,100116.44
2022-12-13T09:44:49.585Z,100107.84
2022-12-13T09:47:35.277Z,100119.22
2022-12-13T09:50:07.998Z,100112.47
2022-12-13T09:52:45.821Z,100128.41
2022-12-13T09:55:21.212Z,100116.53
2022-12-13T09:57:51.344Z,100115.69
2022-12-13T10:00:22.280Z,100118.22
2022-12-13T10:02:52.168Z,100110.13
2022-12-13T10:05:34.227Z,100111.78
2022-12-13T10:08:08.538Z,100109.13
2022-12-13T10:10:37.162Z,100103.56
2022-12-13T10:13:17.802Z,100085.25
2022-12-13T10:15:50.028Z,100090.28
2022-12-13T10:18:26.039Z,100086.13
2022-12-13T10:20:54.403Z,100088.38
2022-12-13T10:24:06.771Z,100082.53
2022-12-13T10:26:23.693Z,100080.63
2022-12-13T10:29:03.958Z,100076.38
2022-12-13T10:31:39.972Z,100078.66
2022-12-13T10:34:18.047Z,100069.50
2022-12-13T10:36:45.858Z,100066.44
2022-12-13T10:39:19.118Z,100057.56
2022-12-13T10:41:47.865Z,100055.09
2022-12-13T10:44:24.201Z,100045.47
2022-12-13T10:46:59.502Z,100049.25
2022-12-13T10:49:31.426Z,100051.50
2022-12-13T10:52:02.585Z,100053.53
2022-12-13T10:54:38.499Z,100047.97
2022-12-13T10:57:16.790Z,100059.53
2022-12-13T10:59:48.607Z,100060.72
2022-12-13T11:02:41.678Z,100050.91
2022-12-13T11:05:25.555Z,100046.88
2022-12-13T11:07:55.650Z,100047.84
2022-12-13T11:10:30.553Z,100035.56
2022-12-13T11:13:03.699Z,100033.59
2022-12-13T11:15:37.019Z,100026.84
2022-12-13T11:18:07.383Z,100017.47
2022-12-13T11:20:38.012Z,100018.09
2022-12-13T11:23:08.453Z,100026.09
2022-12-13T11:25:41.683Z,100027.00
2022-12-13T11:28:29.172Z,100020.78
2022-12-13T11:31:12.216Z,100009.19
2022-12-13T11:33:52.200Z,100010.47
2022-12-13T11:36:31.164Z,100010.50
2022-12-13T11:39:15.140Z,100014.41
2022-12-13T11:41:50.595Z,99998.94
2022-12-13T11:44:25.277Z,100024.72
2022-12-13T11:46:58.368Z,100010.59
2022-12-13T11:49:36.690Z,99996.28
2022-12-13T11:52:13.344Z,99999.31
2022-12-13T11:54:50.132Z,99995.63
2022-12-13T11:57:28.239Z,99988.16
2022-12-13T12:00:01.965Z,99980.88
2022-12-13T12:02:35.477Z,99983.97
2022-12-13T12:05:07.494Z,99980.63
2022-12-13T12:07:58.362Z,99974.28
2022-12-13T12:10:34.461Z,99971.03
2022-12-13T12:13:08.953Z,99965.94
2022-12-13T12:15:42.404Z,99957.94
2022-12-13T12:18:15.697Z,99961.75
2022-12-13T12:20:54.911Z,99969.72
2022-12-13T12:23:32.265Z,99968.91
2022-12-13T12:26:07.595Z,99964.88
2022-12-13T12:28:48.721Z,99953.19
2022-12-13T12:31:25.441Z,99960.94
2022-12-13T12:34:05.569Z,99958.31
2022-12-13T12:36:47.469Z,99953.50
2022-12-13T12:39:35.664Z,99953.50
2022-12-13T12:42:56.845Z,99945.31
2022-12-13T12:45:56.510Z,99949.59
2022-12-13T12:49:01.934Z,99967.69
2022-12-13T12:51:35.985Z,99968.22
2022-12-13T12:54:19.282Z,99971.03
2022-12-13T12:56:55.438Z,99967.09
2022-12-13T12:59:32.126Z,99960.84
2022-12-13T13:02:09.348Z,99953.56
2022-12-13T13:04:43.164Z,99958.34
2022-12-13T13:07:22.389Z,99953.50
2022-12-13T13:09:55.098Z,99945.22
2022-12-13T13:12:29.994Z,99939.44
2022-12-13T13:14:58.911Z,99945.69
2022-12-13T13:17:50.689Z,99945.47
2022-12-13T13:20:23.433Z,99936.22
2022-12-13T13:23:38.828Z,99932.66
2022-12-13T13:28:44.893Z,99930.94
2022-12-13T13:31:12.832Z,99921.28
2022-12-13T13:33:49.161Z,99920.84
2022-12-13T13:36:53.423Z,99919.66
2022-12-13T13:39:53.877Z,99932.41
2022-12-13T13:42:23.248Z,99933.34
2022-12-13T13:45:23.710Z,99928.31
2022-12-13T13:48:19.104Z,99926.88
2022-12-13T13:51:29.594Z,99930.94
2022-12-13T13:54:18.421Z,99923.16
2022-12-13T13:57:28.941Z,99915.31
2022-12-13T14:00:21.270Z,99916.91
2022-12-13T14:03:32.792Z,99913.53
2022-12-13T14:06:41.813Z,99907.97
2022-12-13T14:09:27.432Z,99920.06
2022-12-13T14:12:27.846Z,99921.84
2022-12-13T14:15:55.769Z,99919.97
2022-12-13T14:18:58.226Z,99931.00
2022-12-13T14:21:47.653Z,99936.00
2022-12-13T14:24:23.372Z,99937.84
2022-12-13T14:27:09.991Z,99940.34
2022-12-13T14:29:41.385Z,99942.41
2022-12-13T14:32:26.286Z,99925.53
2022-12-13T14:34:55.308Z,99919.13
2022-12-13T14:37:28.446Z,99920.41
2022-12-13T14:39:56.784Z,99921.78
2022-12-13T14:42:29.785Z,99926.97
2022-12-13T14:45:13.501Z,99922.47
2022-12-13T14:47:41.472Z,99923.41
2022-12-13T14:50:09.849Z,99923.09
2022-12-13T14:52:41.089Z,99917.28
2022-12-13T14:55:24.183Z,99923.16
2022-12-13T14:57:55.098Z,99911.59
2022-12-13T15:00:26.793Z,99912.06
2022-12-13T15:02:57.062Z,99904.19
2022-12-13T15:05:31.726Z,99900.25
2022-12-13T15:08:00.186Z,99893.44
2022-12-13T15:10:40.690Z,99894.66
2022-12-13T15:13:24.747Z,99891.84
2022-12-13T15:15:54.913Z,99892.25
2022-12-13T15:18:26.030Z,99889.06
2022-12-13T15:20:55.816Z,99887.50
2022-12-13T15:23:27.306Z,99883.09
2022-12-13T15:26:00.145Z,99882.31
2022-12-13T15:28:33.257Z,99872.97
2022-12-13T15:31:05.523Z,99864.38
2022-12-13T15:33:38.054Z,99853.13
2022-12-13T15:36:14.963Z,99860.38
2022-12-13T15:38:51.283Z,99849.06
2022-12-13T15:41:20.944Z,99853.00
2022-12-13T15:43:53.644Z,99863.75
2022-12-13T15:46:26.779Z,99859.47
2022-12-13T15:48:57.386Z,99849.63
2022-12-13T15:51:29.842Z,99846.66
2022-12-13T15:54:04.893Z,99855.16
2022-12-13T15:56:36.291Z,99849.81
2022-12-13T15:59:07.695Z,99836.13
2022-12-13T16:01:37.020Z,99833.13
2022-12-13T16:04:06.125Z,99837.03
2022-12-13T16:06:35.094Z,99829.94
2022-12-13T16:09:05.142Z,99836.47
2022-12-13T16:11:36.232Z,99831.03
2022-12-13T16:14:36.965Z,99826.22
2022-12-13T16:17:11.039Z,99825.91
2022-12-13T16:19:38.724Z,99828.34
2022-12-13T16:22:08.900Z,99822.13
2022-12-13T16:24:37.258Z,99816.75
2022-12-13T16:27:08.334Z,99818.63
2022-12-13T16:29:37.862Z,99822.81
2022-12-13T16:32:08.372Z,99825.91
2022-12-13T16:34:36.901Z,99827.38
2022-12-13T16:37:08.594Z,99830.94
2022-12-13T16:39:52.492Z,99831.34
2022-12-13T16:42:20.820Z,99832.75
2022-12-13T16:45:17.749Z,99831.25
2022-12-13T16:47:48.489Z,99838.47
2022-12-13T16:50:18.587Z,99844.81
2022-12-13T16:52:46.358Z,99841.66
2022-12-13T16:55:14.038Z,99836.56
2022-12-13T16:57:41.679Z,99826.09
2022-12-13T17:00:13.814Z,99828.81
2022-12-13T17:02:41.990Z,99817.66
2022-12-13T17:05:10.099Z,99818.34
2022-12-13T17:07:37.906Z,99805.59
2022-12-13T17:10:06.451Z,99804.63
2022-12-13T17:12:34.119Z,99809.88
2022-12-13T17:15:01.874Z,99814.16
2022-12-13T17:17:30.916Z,99804.25
2022-12-13T17:19:58.652Z,99807.81
2022-12-13T17:22:26.453Z,99823.69
2022-12-13T17:24:54.160Z,99821.28
2022-12-13T17:27:21.864Z,99813.22
2022-12-13T17:29:49.812Z,99805.31
2022-12-13T17:32:17.593Z,99811.63
2022-12-13T17:34:46.762Z,99814.94
2022-12-13T17:37:14.637Z,99831.69
2022-12-13T17:39:42.317Z,99825.63
2022-12-13T17:42:10.407Z,99814.81
2022-12-13T17:44:40.114Z,99811.63
2022-12-13T17:47:08.061Z,99808.28
2022-12-13T17:49:35.858Z,99814.16
2022-12-13T17:52:05.505Z,99803.78
2022-12-13T17:54:33.180Z,99800.69
2022-12-13T17:57:01.061Z,99799.91
2022-12-13T17:59:28.946Z,99794.50
2022-12-13T18:01:57.170Z,99799.34
2022-12-13T18:04:27.674Z,99790.59
2022-12-13T18:06:56.572Z,99799.78
2022-12-13T18:09:25.671Z,99793.91
2022-12-13T18:11:53.406Z,99790.72
2022-12-13T18:14:21.239Z,99787.44
2022-12-13T18:16:49.007Z,99774.28
2022-12-13T18:19:16.753Z,99764.97
2022-12-13T18:21:44.600Z,99758.75
2022-12-13T18:24:13.081Z,99751.91
2022-12-13T18:26:42.210Z,99740.59
2022-12-13T18:29:10.382Z,99753.63
2022-12-13T18:31:38.287Z,99753.91
2022-12-13T18:34:06.112Z,99754.13
2022-12-13T18:36:34.490Z,99756.34
2022-12-13T18:39:02.493Z,99757.50
2022-12-13T18:41:31.609Z,99769.16
2022-12-13T18:44:02.625Z,99768.31
2022-12-13T18:46:32.365Z,99757.63
2022-12-13T18:49:00.437Z,99765.97
2022-12-13T18:51:29.141Z,99775.00
2022-12-13T18:53:57.080Z,99764.53
2022-12-13T18:56:25.774Z,99753.94
2022-12-13T18:58:53.503Z,99751.47
2022-12-13T19:01:26.712Z,99744.50
2022-12-13T19:03:54.736Z,99733.38
2022-12-13T19:06:25.063Z,99754.28
2022-12-13T19:08:54.352Z,99749.72
2022-12-13T19:11:22.188Z,99755.50
2022-12-13T19:13:50.509Z,99757.66
2022-12-13T19:16:21.054Z,99751.75
2022-12-13T19:18:50.339Z,99747.38
2022-12-13T19:21:23.410Z,99743.56
2022-12-13T19:23:56.851Z,99739.44
2022-12-13T19:26:26.383Z,99738.16
2022-12-13T19:28:57.056Z,99722.19
2022-12-13T19:31:30.349Z,99734.38
2022-12-13T19:34:02.067Z,99730.81
2022-12-13T19:36:30.554Z,99723.66
2022-12-13T19:38:59.883Z,99724.59
2022-12-13T19:41:27.843Z,99719.34
2022-12-13T19:43:55.534Z,99710.00
2022-12-13T19:46:23.431Z,99701.47
2022-12-13T19:48:51.212Z,99699.44
2022-12-13T19:51:21.458Z,99707.75
2022-12-13T19:53:49.631Z,99706.91
2022-12-13T19:56:18.865Z,99701.47
2022-12-13T19:58:48.036Z,99700.84
2022-12-13T20:01:17.090Z,99701.53
2022-12-13T20:03:46.450Z,99703.75
2022-12-13T20:06:17.053Z,99701.78
2022-12-13T20:08:46.968Z,99690.00
2022-12-13T20:11:17.108Z,99700.63
2022-12-13T20:13:44.866Z,99698.28
2022-12-13T20:16:16.963Z,99691.38
2022-12-13T20:18:44.672Z,99686.19
2022-12-13T20:21:14.782Z,99686.59
2022-12-13T20:23:48.584Z,99684.31
2022-12-13T20:26:21.574Z,99672.72
2022-12-13T20:28:49.781Z,99663.28
2022-12-13T20:31:19.963Z,99663.63
2022-12-13T20:33:48.388Z,99661.72
2022-12-13T20:36:26.334Z,99665.72
2022-12-13T20:38:56.003Z,99653.72
2022-12-13T20:41:27.541Z,99665.38
2022-12-13T20:43:56.420Z,99666.16
2022-12-13T20:46:25.446Z,99659.94
2022-12-13T20:48:54.049Z,99656.47
2022-12-13T20:51:23.785Z,99647.78
2022-12-13T20:53:53.123Z,99630.69
2022-12-13T20:56:23.089Z,99628.25
2022-12-13T20:58:52.276Z,99613.75
2022-12-13T21:01:22.071Z,99604.81
2022-12-13T21:03:50.195Z,99611.81
2022-12-13T21:06:17.859Z,99611.03
2022-12-13T21:08:55.332Z,99616.63
2022-12-13T21:11:25.360Z,99613.19
2022-12-13T21:13:56.597Z,99624.00
2022-12-13T21:16:25.455Z,99625.19
2022-12-13T21:18:54.523Z,99619.34
2022-12-13T21:21:22.589Z,99611.34
2022-12-13T21:23:50.356Z,99606.38
2022-12-13T21:26:18.343Z,99615.66
2022-12-13T21:28:47.517Z,99613.53
2022-12-13T21:31:42.309Z,99604.72
2022-12-13T21:34:10.958Z,99595.72
2022-12-13T21:36:40.567Z,99598.59
2022-12-13T21:39:12.446Z,99587.41
2022-12-13T21:41:40.602Z,99596.00
2022-12-13T21:44:08.530Z,99590.03
2022-12-13T21:49:25.329Z,99591.31
2022-12-13T21:51:53.041Z,99581.84
2022-12-13T21:54:20.790Z,99578.25
2022-12-13T21:57:05.889Z,99567.09
2022-12-13T21:59:33.635Z,99547.47
2022-12-13T22:02:14.714Z,99539.50
2022-12-13T22:04:48.238Z,99530.09
2022-12-13T22:07:18.996Z,99535.09
2022-12-13T22:09:50.909Z,99528.91
2022-12-13T22:12:29.844Z,99526.41
2022-12-13T22:14:57.652Z,99521.78
2022-12-13T22:17:34.702Z,99518.44
2022-12-13T22:20:04.665Z,99500.75
2022-12-13T22:22:32.413Z,99506.81
2022-12-13T22:25:00.181Z,99497.53
2022-12-13T22:27:28.165Z,99493.00
2022-12-13T22:29:57.539Z,99475.91
2022-12-13T22:32:28.392Z,99485.53
2022-12-13T22:34:56.221Z,99481.84
2022-12-13T22:37:24.751Z,99469.72
2022-12-13T22:39:52.695Z,99466.25
2022-12-13T22:42:20.643Z,99471.63
2022-12-13T22:44:48.787Z,99463.75
2022-12-13T22:47:18.703Z,99465.19
2022-12-13T22:49:48.645Z,99471.97
2022-12-13T22:52:17.205Z,99476.25
2022-12-13T22:54:44.965Z,99472.09
2022-12-13T22:57:12.657Z,99466.03
2022-12-13T22:59:40.355Z,99484.47
2022-12-13T23:02:09.771Z,99480.78
2022-12-13T23:04:37.856Z,99491.72
2022-12-13T23:07:07.085Z,99469.25
2022-12-13T23:09:34.824Z,99475.66
2022-12-13T23:12:19.941Z,99481.72
2022-12-13T23:14:47.867Z,99477.09
2022-12-13T23:17:15.657Z,99486.50
2022-12-13T23:19:50.662Z,99480.03
2022-12-13T23:22:22.344Z,99483.25
2022-12-13T23:24:50.298Z,99469.94
2022-12-13T23:27:18.874Z,99474.69
2022-12-13T23:29:46.686Z,99472.59
2022-12-13T23:32:14.549Z,99469.13
2022-12-13T23:34:42.354Z,99465.44
2022-12-13T23:37:10.072Z,99470.91
2022-12-13T23:39:39.509Z,99456.53
2022-12-13T23:42:07.270Z,99468.75
2022-12-13T23:44:35.242Z,99463.28
2022-12-13T23:47:02.916Z,99468.66
2022-12-13T23:49:30.556Z,99466.38
2022-12-13T23:51:58.280Z,99456.41
2022-12-13T23:54:25.945Z,99443.78
2022-12-13T23:56:55.277Z,99448.31
2022-12-13T23:59:25.727Z,99442.63
